首页
METAR-TAF:

METAR-TAF

机场 :

根西岛,

纬度: 49-26N, 经度: 002-36W, 海拔: 102米

当前天气观测

该预报发布于47分钟前的00:50 UTC
风速4节,风向东转东北
温度 7°C
湿度 93%
气压 1027 hPa
能见度10公里或以上
1500米以下无云,无积雨云

METAR: EGJB 070050Z 06004KT CAVOK 07/06 Q1027

时间: 02:37 (01:37 UTC)

预报

该预报发布于2小时和36分钟前的23:01 UTC
预报有效从07日的 00点(UTC)到 07日的 09点(UTC)
风速6节,风向东北
能见度10公里或以上
少量云层高于800英尺
几率 40% :
短暂存在
从 07日的 00点(UTC)到 07日的 07点(UTC)
能見度: 2000
多云层高于500英尺
轻雾
几率 30% :
短暂存在
从 07日的 00点(UTC)到 07日的 06点(UTC)
能見度: 0800
多云层低于100英尺

TAF: EGJB 062301Z 0700/0709 05006KT 9999 FEW008 PROB40 TEMPO 0700/0707 2000 BR BKN005 PROB30 TEMPO 0700/0706 0800 FG BKN000

超过4000个机场的气象观测和天气预报(METAR&TAF报告)。

可查询的气象台以黄色和红色小点在地图上表示。

将鼠标移到小点上方,可查看气象台名称。

然后点击查看天气观测和预报。

如需切换地图:点击带黑十字的绿色按钮放大地图;点击带横线的绿色按钮缩小地图;或者点击绿色箭头查看邻近地区的地图。


METAR-TAF: